LFRD/DNR METAR and TAF weather

Enter ICAO airport designator
Station Type Date Time Source
LFRD METAR 2020/01/17 22:30 UTC NOAA

LFRD 172230Z AUTO 23010KT 9999 FEW028 SCT078 05/03 Q1025 TEMPO 24015G25KT 4000 SHRA BKN015CB


Station Type Date Time Source
LFRD Decoded METAR 2020/01/17 22:30 UTC NOAA

Dinard, France (LFRD) 48-35N 002-04W 60M
Jan 17, 2020 - 05:30 PM EST / 2020.01.17 2230 UTC
Wind: from the SW (230 degrees) at 12 MPH (10 KT):0
Visibility: greater than 7 mile(s):0
Sky conditions: partly cloudy
Weather: Cumulonimbus clouds observed
Temperature: 41 F (5 C)
Dew Point: 37 F (3 C)
Relative Humidity: 86%
Pressure (altimeter): 30.27 in. Hg (1025 hPa)
ob: LFRD 172230Z AUTO 23010KT 9999 FEW028 SCT078 05/03 Q1025 TEMPO 24015G25KT 4000 SHRA BKN015CB
cycle: 22

Station Type Date Time Source
LFRD TAF 2020/01/17 18:21 UTC NOAA

TAF LFRD 171700Z 1718/1818 24012KT 9999 BKN030
TEMPO 1718/1724 24015G25KT 4000 SHRA BKN015CB PROB30
TEMPO 1718/1722 28020G35KT 2000 TSRAGS BKN012CB
BECMG 1804/1806 22005KT
BECMG 1814/1816 06010KT

Example: see airport list